createdAt,value
2023-03-25T00:01:12.831Z,15.87
2023-03-25T00:03:50.292Z,15.90
2023-03-25T00:06:22.812Z,15.95
2023-03-25T00:08:56.437Z,15.96
2023-03-25T00:11:29.238Z,15.97
2023-03-25T00:14:01.737Z,16.01
2023-03-25T00:16:34.453Z,16.02
2023-03-25T00:19:07.072Z,16.04
2023-03-25T00:21:40.143Z,16.08
2023-03-25T00:24:15.172Z,16.14
2023-03-25T00:26:48.805Z,16.18
2023-03-25T00:29:21.954Z,16.19
2023-03-25T00:31:54.525Z,16.27
2023-03-25T00:34:27.572Z,16.31
2023-03-25T00:37:00.170Z,16.34
2023-03-25T00:39:33.017Z,16.38
2023-03-25T00:42:06.624Z,16.42
2023-03-25T00:44:39.830Z,16.45
2023-03-25T00:47:13.978Z,16.45
2023-03-25T00:49:46.969Z,16.46
2023-03-25T00:52:21.860Z,16.47
2023-03-25T00:54:54.353Z,16.47
2023-03-25T00:57:26.898Z,16.45
2023-03-25T01:00:00.297Z,16.43
2023-03-25T01:02:34.085Z,16.42
2023-03-25T01:05:07.971Z,16.40
2023-03-25T01:07:42.087Z,16.38
2023-03-25T01:10:14.926Z,16.37
2023-03-25T01:12:47.590Z,16.32
2023-03-25T01:15:20.455Z,16.28
2023-03-25T01:17:55.192Z,16.23
2023-03-25T01:20:29.068Z,16.22
2023-03-25T01:23:01.825Z,16.18
2023-03-25T01:25:34.843Z,16.18
2023-03-25T01:28:07.947Z,16.16
2023-03-25T01:30:41.041Z,16.16
2023-03-25T01:33:14.180Z,16.13
2023-03-25T01:35:47.997Z,16.10
2023-03-25T01:38:21.749Z,16.07
2023-03-25T01:40:54.684Z,16.04
2023-03-25T01:43:27.205Z,16.01
2023-03-25T01:46:00.009Z,15.98
2023-03-25T01:48:40.813Z,15.95
2023-03-25T01:51:17.997Z,15.90
2023-03-25T01:53:51.634Z,15.89
2023-03-25T01:56:44.683Z,15.88
2023-03-25T01:59:19.402Z,15.84
2023-03-25T02:01:52.070Z,15.81
2023-03-25T02:04:57.480Z,15.79
2023-03-25T02:07:31.199Z,15.79
2023-03-25T02:10:08.004Z,15.79
2023-03-25T02:12:41.684Z,15.77
2023-03-25T02:15:16.654Z,15.73
2023-03-25T02:17:54.942Z,15.70
2023-03-25T02:20:52.086Z,15.70
2023-03-25T02:23:55.954Z,15.65
2023-03-25T02:26:49.784Z,15.60
2023-03-25T02:29:29.639Z,15.56
2023-03-25T02:32:29.665Z,15.53
2023-03-25T02:35:19.044Z,15.49
2023-03-25T02:38:30.737Z,15.47
2023-03-25T02:41:26.108Z,15.48
2023-03-25T02:44:08.140Z,15.46
2023-03-25T02:46:49.296Z,15.46
2023-03-25T02:49:30.977Z,15.44
2023-03-25T02:52:14.314Z,15.40
2023-03-25T02:54:47.771Z,15.40
2023-03-25T02:57:21.615Z,15.38
2023-03-25T03:00:00.111Z,15.36
2023-03-25T03:02:34.191Z,15.34
2023-03-25T03:05:26.514Z,15.33
2023-03-25T03:08:25.290Z,15.32
2023-03-25T03:11:20.601Z,15.31
2023-03-25T03:14:14.041Z,15.29
2023-03-25T03:17:38.958Z,15.25
2023-03-25T03:20:16.357Z,15.22
2023-03-25T03:23:01.807Z,15.19
2023-03-25T03:25:50.739Z,15.20
2023-03-25T03:28:34.742Z,15.19
2023-03-25T03:31:15.687Z,15.15
2023-03-25T03:34:01.296Z,15.10
2023-03-25T03:36:37.873Z,15.07
2023-03-25T03:39:36.429Z,15.03
2023-03-25T03:42:25.029Z,15.00
2023-03-25T03:45:02.618Z,14.96
2023-03-25T03:47:39.787Z,14.92
2023-03-25T03:50:22.164Z,14.85
2023-03-25T03:53:03.194Z,14.83
2023-03-25T03:55:52.625Z,14.81
2023-03-25T03:58:33.586Z,14.77
2023-03-25T04:01:10.839Z,14.72
2023-03-25T04:03:51.143Z,14.69
2023-03-25T04:06:46.888Z,14.66
2023-03-25T04:09:28.324Z,14.64
2023-03-25T04:12:06.388Z,14.62
2023-03-25T04:14:40.086Z,14.62
2023-03-25T04:17:12.870Z,14.62
2023-03-25T04:19:47.066Z,14.63
2023-03-25T04:22:22.042Z,14.65
2023-03-25T04:24:56.368Z,14.63
2023-03-25T04:27:30.119Z,14.62
2023-03-25T04:30:05.142Z,14.61
2023-03-25T04:32:37.868Z,14.62
2023-03-25T04:35:11.816Z,14.60
2023-03-25T04:37:50.021Z,14.58
2023-03-25T04:40:24.456Z,14.58
2023-03-25T04:42:58.675Z,14.55
2023-03-25T04:45:32.866Z,14.55
2023-03-25T04:48:06.343Z,14.55
2023-03-25T04:50:39.655Z,14.53
2023-03-25T04:53:12.090Z,14.50
2023-03-25T04:55:46.937Z,14.48
2023-03-25T04:58:20.045Z,14.47
2023-03-25T05:00:54.147Z,14.47
2023-03-25T05:03:28.068Z,14.47
2023-03-25T05:06:00.871Z,14.47
2023-03-25T05:08:35.138Z,14.46
2023-03-25T05:11:08.111Z,14.45
2023-03-25T05:13:41.112Z,14.44
2023-03-25T05:16:13.666Z,14.43
2023-03-25T05:18:46.179Z,14.43
2023-03-25T05:21:19.261Z,14.43
2023-03-25T05:23:52.847Z,14.44
2023-03-25T05:26:26.105Z,14.43
2023-03-25T05:29:00.757Z,14.45
2023-03-25T05:31:33.554Z,14.46
2023-03-25T05:34:08.858Z,14.48
2023-03-25T05:36:41.977Z,14.52
2023-03-25T05:39:14.526Z,14.57
2023-03-25T05:41:47.054Z,14.62
2023-03-25T05:44:20.142Z,14.67
2023-03-25T05:46:53.054Z,14.71
2023-03-25T05:49:25.520Z,14.72
2023-03-25T05:52:00.305Z,14.71
2023-03-25T05:54:33.678Z,14.66
2023-03-25T05:57:07.447Z,14.60
2023-03-25T05:59:40.912Z,14.57
2023-03-25T06:02:33.512Z,14.57
2023-03-25T06:05:16.519Z,14.59
2023-03-25T06:07:50.022Z,14.58
2023-03-25T06:10:23.451Z,14.55
2023-03-25T06:12:56.186Z,14.51
2023-03-25T06:15:33.931Z,14.48
2023-03-25T06:18:07.748Z,14.46
2023-03-25T06:20:40.393Z,14.40
2023-03-25T06:23:13.460Z,14.39
2023-03-25T06:25:47.791Z,14.36
2023-03-25T06:28:21.562Z,14.35
2023-03-25T06:30:54.823Z,14.32
2023-03-25T06:33:43.283Z,14.28
2023-03-25T06:36:02.824Z,14.26
2023-03-25T06:38:36.073Z,14.19
2023-03-25T06:41:10.195Z,14.09
2023-03-25T06:43:44.663Z,14.00
2023-03-25T06:46:22.648Z,13.94
2023-03-25T06:49:06.214Z,13.91
2023-03-25T06:51:39.765Z,13.91
2023-03-25T06:54:12.796Z,13.94
2023-03-25T06:56:45.389Z,13.97
2023-03-25T06:59:17.882Z,14.02
2023-03-25T07:01:50.565Z,14.08
2023-03-25T07:04:23.436Z,14.15
2023-03-25T07:06:57.823Z,14.18
2023-03-25T07:09:30.401Z,14.24
2023-03-25T07:12:02.847Z,14.33
2023-03-25T07:14:35.960Z,14.40
2023-03-25T07:17:08.695Z,14.50
2023-03-25T07:19:43.737Z,14.60
2023-03-25T07:22:16.917Z,14.73
2023-03-25T07:24:49.859Z,14.87
2023-03-25T07:27:23.806Z,15.06
2023-03-25T07:29:58.854Z,15.21
2023-03-25T07:32:31.511Z,15.37
2023-03-25T07:35:05.835Z,15.43
2023-03-25T07:37:38.461Z,15.46
2023-03-25T07:40:23.143Z,15.42
2023-03-25T07:42:56.627Z,15.46
2023-03-25T07:45:30.966Z,15.51
2023-03-25T07:48:05.892Z,15.52
2023-03-25T07:50:39.542Z,15.51
2023-03-25T07:53:11.976Z,15.49
2023-03-25T07:58:38.846Z,15.49
2023-03-25T08:01:11.422Z,15.55
2023-03-25T08:06:28.269Z,15.67
2023-03-25T08:09:00.595Z,15.70
2023-03-25T08:11:34.417Z,15.68
2023-03-25T08:14:06.954Z,15.70
2023-03-25T08:16:39.386Z,15.70
2023-03-25T08:19:11.852Z,15.69
2023-03-25T08:21:45.053Z,15.70
2023-03-25T08:24:18.031Z,15.74
2023-03-25T08:26:51.276Z,15.78
2023-03-25T08:29:24.774Z,15.84
2023-03-25T08:31:57.795Z,15.94
2023-03-25T08:34:32.880Z,16.01
2023-03-25T08:37:07.656Z,16.04
2023-03-25T08:39:42.365Z,16.08
2023-03-25T08:42:15.623Z,16.09
2023-03-25T08:44:48.130Z,16.07
2023-03-25T08:47:21.311Z,16.09
2023-03-25T08:49:54.438Z,16.12
2023-03-25T08:52:28.261Z,16.14
2023-03-25T08:55:01.177Z,16.18
2023-03-25T08:57:34.280Z,16.19
2023-03-25T09:00:12.926Z,16.19
2023-03-25T09:02:46.549Z,16.14
2023-03-25T09:05:20.148Z,16.04
2023-03-25T09:07:53.362Z,16.00
2023-03-25T09:10:25.959Z,15.99
2023-03-25T09:12:59.268Z,15.99
2023-03-25T09:15:32.316Z,15.98
2023-03-25T09:18:06.027Z,16.00
2023-03-25T09:20:39.385Z,16.04
2023-03-25T09:23:12.283Z,16.06
2023-03-25T09:25:46.404Z,16.13
2023-03-25T09:28:19.692Z,16.24
2023-03-25T09:30:52.307Z,16.31
2023-03-25T09:33:27.335Z,16.38
2023-03-25T09:36:00.329Z,16.42
2023-03-25T09:38:33.313Z,16.47
2023-03-25T09:41:26.986Z,16.51
2023-03-25T09:44:30.993Z,16.54
2023-03-25T09:47:04.196Z,16.54
2023-03-25T09:49:46.404Z,16.54
2023-03-25T09:52:23.895Z,16.51
2023-03-25T09:55:03.159Z,16.47
2023-03-25T09:57:41.834Z,16.44
2023-03-25T10:00:36.084Z,16.43
2023-03-25T10:03:23.349Z,16.44
2023-03-25T10:06:17.999Z,16.40
2023-03-25T10:09:27.508Z,16.31
2023-03-25T10:12:48.126Z,16.26
2023-03-25T10:15:40.567Z,16.23
2023-03-25T10:18:30.178Z,16.27
2023-03-25T10:21:28.423Z,16.29
2023-03-25T10:24:21.415Z,16.30
2023-03-25T10:27:42.090Z,16.27
2023-03-25T10:30:36.393Z,16.25
2023-03-25T10:33:17.684Z,16.20
2023-03-25T10:35:52.133Z,16.20
2023-03-25T10:38:26.268Z,16.23
2023-03-25T10:41:33.044Z,16.28
2023-03-25T10:44:12.400Z,16.32
2023-03-25T10:47:19.989Z,16.38
2023-03-25T10:49:52.876Z,16.44
2023-03-25T10:52:25.338Z,16.51
2023-03-25T10:54:58.486Z,16.58
2023-03-25T10:57:31.845Z,16.67
2023-03-25T11:00:35.291Z,16.73
2023-03-25T11:03:13.095Z,16.77
2023-03-25T11:05:46.039Z,16.81
2023-03-25T11:08:24.419Z,16.90
2023-03-25T11:11:00.154Z,17.03
2023-03-25T11:13:33.181Z,17.18
2023-03-25T11:16:07.661Z,17.27
2023-03-25T11:18:43.396Z,17.35
2023-03-25T11:21:15.975Z,17.41
2023-03-25T11:23:51.706Z,17.43
2023-03-25T11:26:30.448Z,17.41
2023-03-25T11:29:12.321Z,17.42
2023-03-25T11:31:45.743Z,17.52
2023-03-25T11:34:24.292Z,17.66
2023-03-25T11:37:18.787Z,17.78
2023-03-25T11:39:56.193Z,17.89
2023-03-25T11:42:52.428Z,17.90
2023-03-25T11:45:54.963Z,17.87
2023-03-25T11:48:31.409Z,17.82
2023-03-25T11:51:05.250Z,17.75
2023-03-25T11:53:38.365Z,17.66
2023-03-25T11:56:13.274Z,17.56
2023-03-25T11:58:45.950Z,17.43
2023-03-25T12:01:31.979Z,17.37
2023-03-25T12:04:23.660Z,17.36
2023-03-25T12:07:02.385Z,17.37
2023-03-25T12:09:35.687Z,17.37
2023-03-25T12:12:16.862Z,17.41
2023-03-25T12:15:09.253Z,17.49
2023-03-25T12:18:19.869Z,17.53
2023-03-25T12:21:27.212Z,17.55
2023-03-25T12:24:36.852Z,17.50
2023-03-25T12:27:38.420Z,17.40
2023-03-25T12:30:38.441Z,17.32
2023-03-25T12:33:28.609Z,17.27
2023-03-25T12:36:32.764Z,17.24
2023-03-25T12:39:42.622Z,17.23
2023-03-25T12:42:31.601Z,17.23
2023-03-25T12:45:31.780Z,17.23
2023-03-25T12:48:18.792Z,17.18
2023-03-25T12:51:01.524Z,17.16
2023-03-25T12:54:00.044Z,17.12
2023-03-25T12:57:08.354Z,17.10
2023-03-25T12:59:59.193Z,17.04
2023-03-25T13:03:03.889Z,16.96
2023-03-25T13:06:18.445Z,16.90
2023-03-25T13:09:16.659Z,16.85
2023-03-25T13:12:00.570Z,16.80
2023-03-25T13:15:15.127Z,16.76
2023-03-25T13:18:09.008Z,16.72
2023-03-25T13:21:24.728Z,16.70
2023-03-25T13:24:07.384Z,16.67
2023-03-25T13:26:42.115Z,16.64
2023-03-25T13:29:45.946Z,16.62
2023-03-25T13:32:35.101Z,16.62
2023-03-25T13:35:38.863Z,16.65
2023-03-25T13:38:22.705Z,16.68
2023-03-25T13:41:34.164Z,16.73
2023-03-25T13:44:13.744Z,16.76
2023-03-25T13:46:56.155Z,16.81
2023-03-25T13:49:44.587Z,16.87
2023-03-25T13:52:18.376Z,16.97
2023-03-25T13:54:57.617Z,17.06
2023-03-25T13:58:03.812Z,17.16
2023-03-25T14:00:41.872Z,17.25
2023-03-25T14:03:34.585Z,17.27
2023-03-25T14:06:51.925Z,17.24
2023-03-25T14:10:02.176Z,17.24
2023-03-25T14:12:43.937Z,17.23
2023-03-25T14:15:23.698Z,17.20
2023-03-25T14:17:57.720Z,17.15
2023-03-25T14:20:34.571Z,17.14
2023-03-25T14:23:20.118Z,17.14
2023-03-25T14:25:58.476Z,17.09
2023-03-25T14:28:43.223Z,17.06
2023-03-25T14:34:14.125Z,16.97
2023-03-25T14:36:52.085Z,16.92
2023-03-25T14:39:52.882Z,16.89
2023-03-25T14:42:42.803Z,16.87
2023-03-25T14:45:43.506Z,16.80
2023-03-25T14:48:26.231Z,16.74
2023-03-25T14:51:29.238Z,16.67
2023-03-25T14:54:26.378Z,16.60
2023-03-25T14:57:04.499Z,16.51
2023-03-25T14:59:46.909Z,16.43
2023-03-25T15:02:33.007Z,16.34
2023-03-25T15:05:28.386Z,16.20
2023-03-25T15:08:12.093Z,16.12
2023-03-25T15:10:52.844Z,16.06
2023-03-25T15:13:32.382Z,16.02
2023-03-25T15:16:08.908Z,15.98
2023-03-25T15:18:48.576Z,15.94
2023-03-25T15:21:26.696Z,15.91
2023-03-25T15:24:09.136Z,15.91
2023-03-25T15:26:44.881Z,15.91
2023-03-25T15:29:31.754Z,15.90
2023-03-25T15:32:37.049Z,15.85
2023-03-25T15:35:33.432Z,15.82
2023-03-25T15:38:47.154Z,15.79
2023-03-25T15:42:07.333Z,15.76
2023-03-25T15:45:19.673Z,15.71
2023-03-25T15:48:06.038Z,15.67
2023-03-25T15:51:07.250Z,15.62
2023-03-25T15:53:56.214Z,15.59
2023-03-25T15:56:48.134Z,15.56
2023-03-25T15:59:42.844Z,15.52
2023-03-25T16:02:21.134Z,15.48
2023-03-25T16:04:53.864Z,15.43
2023-03-25T16:07:29.650Z,15.39
2023-03-25T16:10:34.739Z,15.37
2023-03-25T16:13:16.034Z,15.33
2023-03-25T16:15:49.167Z,15.27
2023-03-25T16:18:22.452Z,15.25
2023-03-25T16:21:00.568Z,15.24
2023-03-25T16:23:33.193Z,15.24
2023-03-25T16:26:26.191Z,15.24
2023-03-25T16:29:02.625Z,15.27
2023-03-25T16:31:37.931Z,15.29
2023-03-25T16:34:17.412Z,15.30
2023-03-25T16:36:51.851Z,15.30
2023-03-25T16:39:28.897Z,15.31
2023-03-25T16:42:08.310Z,15.31
2023-03-25T16:44:42.514Z,15.31
2023-03-25T16:47:15.964Z,15.31
2023-03-25T16:49:49.811Z,15.31
2023-03-25T16:52:28.654Z,15.30
2023-03-25T16:55:06.105Z,15.32
2023-03-25T16:57:41.164Z,15.31
2023-03-25T17:00:20.625Z,15.32
2023-03-25T17:02:54.209Z,15.31
2023-03-25T17:05:29.021Z,15.28
2023-03-25T17:08:08.322Z,15.28
2023-03-25T17:10:55.356Z,15.27
2023-03-25T17:13:33.100Z,15.25
2023-03-25T17:16:10.655Z,15.24
2023-03-25T17:18:44.207Z,15.25
2023-03-25T17:21:30.373Z,15.24
2023-03-25T17:24:24.416Z,15.22
2023-03-25T17:27:27.165Z,15.21
2023-03-25T17:30:01.691Z,15.19
2023-03-25T17:32:39.331Z,15.16
2023-03-25T17:35:28.211Z,15.13
2023-03-25T17:38:01.238Z,15.10
2023-03-25T17:40:34.031Z,15.09
2023-03-25T17:43:06.379Z,15.07
2023-03-25T17:45:39.348Z,15.07
2023-03-25T17:48:17.127Z,15.05
2023-03-25T17:50:55.679Z,15.06
2023-03-25T17:53:28.427Z,15.06
2023-03-25T17:56:02.856Z,15.08
2023-03-25T17:58:35.768Z,15.06
2023-03-25T18:01:12.786Z,15.00
2023-03-25T18:03:46.039Z,14.94
2023-03-25T18:06:19.357Z,14.90
2023-03-25T18:08:52.195Z,14.84
2023-03-25T18:11:24.777Z,14.72
2023-03-25T18:13:57.962Z,14.61
2023-03-25T18:16:31.039Z,14.56
2023-03-25T18:19:03.608Z,14.52
2023-03-25T18:21:37.651Z,14.48
2023-03-25T18:24:11.373Z,14.44
2023-03-25T18:26:44.380Z,14.40
2023-03-25T18:29:39.651Z,14.32
2023-03-25T18:32:12.733Z,14.27
2023-03-25T18:34:47.692Z,14.24
2023-03-25T18:37:20.368Z,14.27
2023-03-25T18:39:54.017Z,14.27
2023-03-25T18:42:26.785Z,14.21
2023-03-25T18:44:59.245Z,14.20
2023-03-25T18:47:32.861Z,14.23
2023-03-25T18:50:19.687Z,14.24
2023-03-25T18:52:53.174Z,14.27
2023-03-25T18:55:27.398Z,14.28
2023-03-25T18:58:00.412Z,14.28
2023-03-25T19:00:37.744Z,14.28
2023-03-25T19:03:11.547Z,14.27
2023-03-25T19:05:45.744Z,14.28
2023-03-25T19:08:40.507Z,14.30
2023-03-25T19:11:20.786Z,14.28
2023-03-25T19:13:48.195Z,14.26
2023-03-25T19:16:21.733Z,14.27
2023-03-25T19:18:54.839Z,14.29
2023-03-25T19:21:27.666Z,14.28
2023-03-25T19:24:01.045Z,14.26
2023-03-25T19:26:33.964Z,14.27
2023-03-25T19:29:08.904Z,14.23
2023-03-25T19:31:42.614Z,14.21
2023-03-25T19:34:16.823Z,14.10
2023-03-25T19:36:50.919Z,14.01
2023-03-25T19:39:23.956Z,14.02
2023-03-25T19:41:58.287Z,14.05
2023-03-25T19:44:33.470Z,14.08
2023-03-25T19:47:07.371Z,14.12
2023-03-25T19:49:40.533Z,14.14
2023-03-25T19:52:13.227Z,14.04
2023-03-25T19:54:47.102Z,13.95
2023-03-25T19:57:20.453Z,13.90
2023-03-25T19:59:53.707Z,13.90
2023-03-25T20:02:26.744Z,13.91
2023-03-25T20:04:59.239Z,13.96
2023-03-25T20:07:32.795Z,14.03
2023-03-25T20:10:19.006Z,14.07
2023-03-25T20:12:42.239Z,14.08
2023-03-25T20:15:16.630Z,14.07
2023-03-25T20:17:53.879Z,14.10
2023-03-25T20:20:27.718Z,14.09
2023-03-25T20:23:00.336Z,14.12
2023-03-25T20:25:33.335Z,14.16
2023-03-25T20:28:07.133Z,14.19
2023-03-25T20:30:39.676Z,14.23
2023-03-25T20:33:13.321Z,14.25
2023-03-25T20:35:46.815Z,14.25
2023-03-25T20:38:21.650Z,14.28
2023-03-25T20:40:57.582Z,14.27
2023-03-25T20:43:31.542Z,14.19
2023-03-25T20:46:04.125Z,13.99
2023-03-25T20:48:38.877Z,13.78
2023-03-25T20:51:13.438Z,13.59
2023-03-25T20:53:47.271Z,13.44
2023-03-25T20:59:05.879Z,13.38
2023-03-25T21:01:38.960Z,13.41
2023-03-25T21:04:13.510Z,13.38
2023-03-25T21:06:46.956Z,13.34
2023-03-25T21:09:19.690Z,13.33
2023-03-25T21:11:52.238Z,13.33
2023-03-25T21:14:25.201Z,13.30
2023-03-25T21:16:58.310Z,13.23
2023-03-25T21:19:32.374Z,13.22
2023-03-25T21:22:04.848Z,13.23
2023-03-25T21:24:37.747Z,13.24
2023-03-25T21:27:10.465Z,13.26
2023-03-25T21:29:43.510Z,13.27
2023-03-25T21:32:16.946Z,13.21
2023-03-25T21:34:50.102Z,13.15
2023-03-25T21:37:22.809Z,13.09
2023-03-25T21:39:57.092Z,13.01
2023-03-25T21:42:29.674Z,13.00
2023-03-25T21:45:02.744Z,12.98
2023-03-25T21:47:36.460Z,12.97
2023-03-25T21:50:11.202Z,12.93
2023-03-25T21:52:49.190Z,12.90
2023-03-25T21:55:22.747Z,12.86
2023-03-25T21:57:56.650Z,12.79
2023-03-25T22:00:29.972Z,12.74
2023-03-25T22:03:03.278Z,12.70
2023-03-25T22:05:36.247Z,12.67
2023-03-25T22:08:09.586Z,12.67
2023-03-25T22:10:43.080Z,12.62
2023-03-25T22:13:15.977Z,12.59
2023-03-25T22:15:49.081Z,12.57
2023-03-25T22:18:21.874Z,12.58
2023-03-25T22:20:54.567Z,12.63
2023-03-25T22:23:27.372Z,12.63
2023-03-25T22:25:59.925Z,12.63
2023-03-25T22:28:33.104Z,12.67
2023-03-25T22:31:20.126Z,12.66
2023-03-25T22:33:55.855Z,12.66
2023-03-25T22:36:28.529Z,12.68
2023-03-25T22:39:01.523Z,12.68
2023-03-25T22:41:35.868Z,12.72
2023-03-25T22:44:08.275Z,12.76
2023-03-25T22:46:41.460Z,12.78
2023-03-25T22:49:14.498Z,12.77
2023-03-25T22:51:48.486Z,12.79
2023-03-25T22:54:21.147Z,12.84
2023-03-25T22:56:53.672Z,12.87
2023-03-25T22:59:26.457Z,12.88
2023-03-25T23:01:59.270Z,12.90
2023-03-25T23:04:32.671Z,12.96
2023-03-25T23:07:08.377Z,13.00
2023-03-25T23:09:44.226Z,13.03
2023-03-25T23:12:20.538Z,13.01
2023-03-25T23:14:56.163Z,12.96
2023-03-25T23:17:30.067Z,12.94
2023-03-25T23:20:03.241Z,12.91
2023-03-25T23:22:36.530Z,12.83
2023-03-25T23:25:10.107Z,12.78
2023-03-25T23:27:44.359Z,12.80
2023-03-25T23:30:17.407Z,12.81
2023-03-25T23:32:49.905Z,12.78
2023-03-25T23:35:23.269Z,12.78
2023-03-25T23:37:55.965Z,12.77
2023-03-25T23:40:28.529Z,12.77
2023-03-25T23:43:02.271Z,12.76
2023-03-25T23:45:37.095Z,12.76
2023-03-25T23:48:09.667Z,12.74
2023-03-25T23:50:43.838Z,12.74
2023-03-25T23:53:16.150Z,12.73
2023-03-25T23:55:51.500Z,12.71
2023-03-25T23:58:25.596Z,12.69
